Time;durP1;ratioP1;P1;durP2;ratioP2;P2;SDS_P1;SDS_P2;PMS_P1;PMS_P2;Temp;Humidity;BMP_temperature;BMP_pressure;BME280_temperature;BME280_humidity;BME280_pressure;Samples;Min_cycle;Max_cycle;Signal;HPM_P1;HPM_P2
2023/08/25 00:00:19;;;;;;;5.88;4.15;;;;;;;23.59;65.56;97965.06;3194465;23;20032;-88
2023/08/25 00:01:55;;;;;;;5.72;4.18;;;;;;;23.75;64.02;97961.88;3194176;23;20020;-88
2023/08/25 00:03:12;;;;;;;5.78;3.72;;;;;;;23.83;63.55;97956.66;3194733;23;20072;-88
2023/08/25 00:04:27;;;;;;;5.65;4.28;;;;;;;23.94;62.70;97949.50;3194929;23;20028;-88
2023/08/25 00:05:43;;;;;;;5.28;3.58;;;;;;;23.75;63.99;97939.63;3194005;23;20032;-87
2023/08/25 00:06:58;;;;;;;5.13;3.28;;;;;;;23.74;63.86;97935.28;3177296;23;20129;-87
2023/08/25 00:08:14;;;;;;;8.00;3.17;;;;;;;23.96;63.73;97931.47;3168329;23;20630;-87
2023/08/25 00:09:30;;;;;;;5.63;3.58;;;;;;;24.07;63.97;97928.69;3184004;23;20021;-88
2023/08/25 00:10:45;;;;;;;6.10;3.70;;;;;;;24.19;62.55;97918.69;3195407;23;20071;-88
2023/08/25 00:12:01;;;;;;;6.45;4.03;;;;;;;24.19;64.07;97909.84;3195774;23;20021;-88
2023/08/25 00:13:17;;;;;;;5.78;4.15;;;;;;;24.20;64.17;97907.00;3177289;23;20371;-88
2023/08/25 00:14:32;;;;;;;6.68;4.15;;;;;;;24.29;64.48;97913.31;3184442;23;20402;-88
2023/08/25 00:15:49;;;;;;;5.22;3.65;;;;;;;24.34;63.30;97912.88;3195291;23;20075;-89
2023/08/25 00:17:05;;;;;;;7.15;3.95;;;;;;;24.29;64.25;97905.28;3194163;23;20025;-89
2023/08/25 00:18:20;;;;;;;6.28;4.15;;;;;;;24.20;65.46;97909.69;3193799;23;20025;-89
2023/08/25 00:19:36;;;;;;;4.43;3.78;;;;;;;24.22;65.11;97901.53;3194375;23;20028;-89
2023/08/25 00:20:51;;;;;;;4.68;3.65;;;;;;;24.16;66.56;97904.75;3177590;23;20076;-89
2023/08/25 00:22:07;;;;;;;6.68;3.33;;;;;;;24.05;67.84;97909.28;3185074;23;20017;-89
2023/08/25 00:23:23;;;;;;;6.68;3.83;;;;;;;23.70;73.09;97902.63;3193925;23;20032;-89
2023/08/25 00:24:38;;;;;;;6.88;3.83;;;;;;;23.45;74.62;97917.38;3194337;23;20017;-89
2023/08/25 00:25:54;;;;;;;7.10;3.90;;;;;;;23.66;73.79;97914.59;3178341;23;20025;-89
2023/08/25 00:27:09;;;;;;;5.95;3.92;;;;;;;23.77;73.83;97924.31;3185637;23;20067;-89
2023/08/25 00:28:25;;;;;;;4.70;3.80;;;;;;;23.76;72.79;97917.28;3178174;23;20025;-89
2023/08/25 00:29:41;;;;;;;5.38;3.40;;;;;;;23.72;72.35;97923.88;3169000;23;20037;-89
2023/08/25 00:30:56;;;;;;;6.70;3.70;;;;;;;23.68;75.06;97928.66;3184614;23;20023;-89
2023/08/25 00:32:12;;;;;;;5.93;3.60;;;;;;;23.76;73.24;97931.50;3177366;23;20053;-89
2023/08/25 00:33:28;;;;;;;6.15;3.20;;;;;;;23.89;74.40;97928.53;3185852;23;20596;-89
2023/08/25 00:34:43;;;;;;;5.18;3.25;;;;;;;23.96;74.17;97926.13;3194003;23;20046;-89
2023/08/25 00:35:59;;;;;;;6.78;3.40;;;;;;;23.97;75.70;97923.34;3194324;23;20020;-89
2023/08/25 00:37:14;;;;;;;7.28;3.28;;;;;;;23.84;76.11;97928.13;3194639;23;20024;-89
2023/08/25 00:38:30;;;;;;;6.75;3.40;;;;;;;23.81;75.21;97918.53;3195258;23;20025;-88
2023/08/25 00:39:46;;;;;;;5.03;3.45;;;;;;;23.85;75.56;97921.78;3193899;23;20055;-89
2023/08/25 00:41:01;;;;;;;4.13;2.78;;;;;;;23.70;77.54;97916.00;3194693;23;20028;-89
2023/08/25 00:42:16;;;;;;;4.95;3.13;;;;;;;23.72;78.14;97911.34;3197376;23;20079;-89
2023/08/25 00:43:33;;;;;;;7.40;3.78;;;;;;;23.72;81.22;97918.53;3197093;23;20051;-89
2023/08/25 00:44:48;;;;;;;6.18;2.95;;;;;;;23.55;82.65;97911.06;3179909;23;20021;-88
2023/08/25 00:46:04;;;;;;;5.05;3.50;;;;;;;23.47;82.07;97918.94;3184201;23;20052;-88
2023/08/25 00:47:20;;;;;;;6.32;3.30;;;;;;;23.25;87.16;97926.16;3194264;23;20043;-88
2023/08/25 00:48:36;;;;;;;4.38;3.30;;;;;;;23.29;88.12;97926.78;3195243;23;20075;-89
2023/08/25 00:49:53;;;;;;;4.68;3.47;;;;;;;23.14;89.08;97918.25;3193965;23;20017;-88
2023/08/25 00:51:09;;;;;;;4.75;3.50;;;;;;;23.09;89.78;97913.31;3193874;23;20796;-88
2023/08/25 00:52:25;;;;;;;6.72;3.28;;;;;;;23.19;91.06;97921.38;3194218;23;20021;-88
2023/08/25 00:53:43;;;;;;;4.80;3.22;;;;;;;23.18;93.62;97918.84;3194641;23;20080;-88
2023/08/25 00:54:59;;;;;;;3.67;3.03;;;;;;;22.92;96.33;97921.97;3193743;23;20776;-88
2023/08/25 00:56:17;;;;;;;4.68;2.92;;;;;;;22.86;98.40;97923.34;3194089;23;20720;-88
2023/08/25 00:57:32;;;;;;;6.63;3.60;;;;;;;22.98;99.26;97911.59;3193926;23;20048;-88
2023/08/25 00:58:49;;;;;;;4.88;2.80;;;;;;;22.87;98.49;97916.19;3177315;23;20025;-89
2023/08/25 01:00:06;;;;;;;7.68;2.92;;;;;;;22.84;99.16;97915.50;3184808;23;20060;-88
2023/08/25 01:01:22;;;;;;;4.90;3.05;;;;;;;22.87;100.00;97908.19;3194981;23;20101;-88
2023/08/25 01:02:39;;;;;;;7.53;3.55;;;;;;;23.02;100.00;97900.66;3195366;23;20442;-88
2023/08/25 01:03:56;;;;;;;4.15;3.20;;;;;;;22.99;100.00;97904.44;3194097;23;20072;-88
2023/08/25 01:05:12;;;;;;;8.30;3.50;;;;;;;22.97;100.00;97914.41;3194004;23;20055;-87
2023/08/25 01:06:27;;;;;;;8.90;3.42;;;;;;;22.96;100.00;97912.72;3178131;23;20661;-88
2023/08/25 01:07:43;;;;;;;6.13;3.35;;;;;;;22.96;100.00;97902.88;3185001;23;20449;-88
2023/08/25 01:08:59;;;;;;;5.40;3.50;;;;;;;23.11;100.00;97905.19;3194123;23;20643;-89
2023/08/25 01:10:15;;;;;;;7.47;3.95;;;;;;;23.05;100.00;97905.72;3193940;23;20071;-88
2023/08/25 01:11:40;;;;;;;4.88;3.30;;;;;;;23.06;100.00;97905.59;3194120;23;20035;-90
2023/08/25 01:13:08;;;;;;;5.60;3.53;;;;;;;23.10;100.00;97904.31;3194069;23;20468;-88
2023/08/25 01:14:40;;;;;;;6.22;3.28;;;;;;;22.97;100.00;97893.91;3176944;23;20045;-90
2023/08/25 01:15:56;;;;;;;6.22;3.67;;;;;;;22.93;100.00;97899.63;3188798;23;20100;-89
2023/08/25 01:17:31;;;;;;;4.75;3.50;;;;;;;22.80;100.00;97900.72;3177589;23;20018;-89
2023/08/25 01:18:47;;;;;;;4.45;3.45;;;;;;;22.93;100.00;97899.63;3188670;23;20052;-88
2023/08/25 01:20:07;;;;;;;6.93;3.90;;;;;;;22.85;100.00;97901.16;3194759;23;20079;-88
2023/08/25 01:21:23;;;;;;;4.90;3.60;;;;;;;22.52;100.00;97894.28;3194790;23;20584;-89
2023/08/25 01:23:06;;;;;;;6.25;3.83;;;;;;;22.69;100.00;97896.31;3177520;23;20477;-88
2023/08/25 01:24:28;;;;;;;6.93;4.15;;;;;;;22.84;100.00;97906.63;3189928;23;20017;-88
2023/08/25 01:25:47;;;;;;;5.57;4.00;;;;;;;22.76;100.00;97917.97;3194257;23;20055;-88
2023/08/25 01:27:04;;;;;;;7.20;3.65;;;;;;;22.71;100.00;97925.56;3194007;23;20079;-88
2023/08/25 01:28:22;;;;;;;7.30;3.92;;;;;;;22.74;100.00;97933.28;3194226;23;20533;-88
2023/08/25 01:29:42;;;;;;;5.05;3.90;;;;;;;22.59;100.00;97940.78;3194734;23;20017;-88
2023/08/25 01:30:59;;;;;;;5.18;3.78;;;;;;;22.71;100.00;97946.91;3195042;23;20049;-90
2023/08/25 01:32:14;;;;;;;5.95;3.90;;;;;;;22.78;100.00;97956.03;3195574;23;20403;-90
2023/08/25 01:33:33;;;;;;;4.80;4.15;;;;;;;22.67;100.00;97950.78;3193733;23;20075;-88
2023/08/25 01:34:49;;;;;;;10.60;4.28;;;;;;;22.62;100.00;97947.69;3176762;23;20029;-88
2023/08/25 01:36:44;;;;;;;5.40;3.80;;;;;;;22.55;100.00;97952.69;3184470;23;20483;-88
2023/08/25 01:38:09;;;;;;;7.57;3.75;;;;;;;22.47;100.00;97955.13;3148383;23;20046;-89
2023/08/25 01:39:28;;;;;;;7.28;3.85;;;;;;;22.22;100.00;97957.22;3177362;23;20021;-89
2023/08/25 01:40:51;;;;;;;6.03;4.10;;;;;;;22.25;100.00;97959.63;3184873;23;20232;-88
2023/08/25 01:42:07;;;;;;;5.43;3.50;;;;;;;22.41;100.00;97964.50;3193638;23;20071;-88
2023/08/25 01:43:27;;;;;;;10.23;3.97;;;;;;;22.57;100.00;97983.59;3194622;23;20032;-89
2023/08/25 01:44:46;;;;;;;5.20;3.40;;;;;;;22.57;100.00;97993.41;3194597;23;20025;-88
2023/08/25 01:46:02;;;;;;;5.40;3.15;;;;;;;22.71;100.00;97990.41;3178554;23;20049;-89
2023/08/25 01:47:23;;;;;;;6.30;3.38;;;;;;;22.74;100.00;97991.13;3185058;23;20081;-88
2023/08/25 01:48:40;;;;;;;7.60;3.35;;;;;;;22.62;100.00;97990.38;3194695;23;20049;-89
2023/08/25 01:49:57;;;;;;;6.15;3.40;;;;;;;22.77;100.00;97990.84;3195449;23;20079;-88
2023/08/25 01:51:15;;;;;;;5.75;3.42;;;;;;;22.59;100.00;97986.13;3177203;23;20022;-88
2023/08/25 01:52:31;;;;;;;6.65;3.40;;;;;;;22.62;100.00;97980.53;3184713;23;20028;-88
2023/08/25 01:53:54;;;;;;;6.18;3.55;;;;;;;22.70;100.00;97980.72;3194113;23;20052;-88
2023/08/25 01:55:10;;;;;;;4.15;3.47;;;;;;;22.80;100.00;97970.09;3193897;23;20060;-88
2023/08/25 01:56:25;;;;;;;5.20;3.55;;;;;;;22.82;100.00;97972.66;3194786;23;20048;-88
2023/08/25 01:57:41;;;;;;;8.30;3.58;;;;;;;22.89;100.00;97968.44;3179183;23;20013;-90
2023/08/25 01:58:57;;;;;;;4.65;3.33;;;;;;;22.76;100.00;97966.00;3184029;23;20475;-87
2023/08/25 02:00:13;;;;;;;5.60;3.58;;;;;;;22.69;100.00;97962.16;3193555;23;20021;-88
2023/08/25 02:01:30;;;;;;;4.72;4.03;;;;;;;22.63;100.00;97965.38;3176870;23;20052;-88
2023/08/25 02:02:46;;;;;;;5.70;3.63;;;;;;;22.47;100.00;97960.47;3184167;23;20017;-88
2023/08/25 02:04:02;;;;;;;6.18;3.20;;;;;;;22.44;100.00;97957.09;3193983;23;20025;-88
2023/08/25 02:05:17;;;;;;;5.70;3.80;;;;;;;22.56;100.00;97957.06;3193486;23;20013;-88
2023/08/25 02:06:33;;;;;;;6.65;3.75;;;;;;;22.51;100.00;97965.44;3177690;23;20113;-91
2023/08/25 02:07:48;;;;;;;6.30;4.05;;;;;;;22.55;100.00;97966.03;3184878;23;20457;-88
2023/08/25 02:09:04;;;;;;;7.13;3.45;;;;;;;22.52;100.00;97963.63;3192606;23;20021;-90
2023/08/25 02:10:20;;;;;;;6.35;3.35;;;;;;;22.18;100.00;97959.28;3193891;23;20025;-88
2023/08/25 02:11:35;;;;;;;4.47;3.20;;;;;;;22.14;100.00;97966.69;3195339;23;20084;-88
2023/08/25 02:12:51;;;;;;;7.40;3.20;;;;;;;22.12;100.00;97954.47;3195610;23;20029;-88
2023/08/25 02:14:06;;;;;;;3.55;3.20;;;;;;;22.03;100.00;97956.06;3195651;23;20017;-88
2023/08/25 02:15:22;;;;;;;5.10;3.80;;;;;;;22.07;100.00;97965.53;3194516;23;20025;-89
2023/08/25 02:16:37;;;;;;;8.82;3.50;;;;;;;22.15;100.00;97959.56;3195000;23;20024;-88
2023/08/25 02:17:53;;;;;;;4.60;3.30;;;;;;;22.10;100.00;97951.09;3195333;23;20021;-90
2023/08/25 02:19:08;;;;;;;7.43;3.97;;;;;;;22.01;100.00;97948.22;3195639;23;20155;-89
2023/08/25 02:20:24;;;;;;;6.03;3.20;;;;;;;22.05;100.00;97951.47;3180014;23;20315;-89
2023/08/25 02:21:40;;;;;;;4.70;3.25;;;;;;;21.77;100.00;97947.59;3184514;23;20028;-88
2023/08/25 02:22:55;;;;;;;5.57;3.50;;;;;;;21.68;100.00;97949.19;3194144;23;20461;-88
2023/08/25 02:24:11;;;;;;;4.35;3.75;;;;;;;21.74;100.00;97951.34;3195694;23;20396;-88
2023/08/25 02:25:26;;;;;;;5.30;3.60;;;;;;;21.80;100.00;97944.66;3195062;23;20028;-89
2023/08/25 02:26:42;;;;;;;6.45;3.88;;;;;;;21.49;100.00;97944.50;3194850;23;20020;-89
2023/08/25 02:27:57;;;;;;;4.75;3.53;;;;;;;21.62;100.00;97939.00;3194918;23;20017;-88
2023/08/25 02:29:13;;;;;;;6.03;3.63;;;;;;;21.66;100.00;97935.16;3195518;23;20733;-88
2023/08/25 02:30:29;;;;;;;6.32;3.35;;;;;;;21.59;100.00;97940.94;3194716;23;20049;-88
2023/08/25 02:31:44;;;;;;;4.43;3.45;;;;;;;21.54;100.00;97932.50;3194616;23;20025;-88
2023/08/25 02:33:00;;;;;;;8.13;3.72;;;;;;;21.47;100.00;97923.28;3178055;23;20025;-88
2023/08/25 02:34:16;;;;;;;5.30;3.35;;;;;;;21.43;100.00;97927.19;3185260;23;20017;-88
2023/08/25 02:35:31;;;;;;;7.07;3.55;;;;;;;21.43;100.00;97919.19;3194798;23;20032;-88
2023/08/25 02:36:47;;;;;;;4.28;3.53;;;;;;;21.13;100.00;97931.34;3177960;23;20066;-88
2023/08/25 02:38:06;;;;;;;4.85;3.88;;;;;;;21.14;100.00;97925.06;3184968;23;20074;-89
2023/08/25 02:39:22;;;;;;;5.40;3.70;;;;;;;21.16;100.00;97925.78;3195134;23;20029;-88
2023/08/25 02:40:38;;;;;;;5.32;3.65;;;;;;;21.21;100.00;97920.91;3177756;23;20021;-88
2023/08/25 02:41:53;;;;;;;6.25;3.75;;;;;;;20.94;100.00;97930.13;3184040;23;20436;-89
2023/08/25 02:43:09;;;;;;;7.60;4.20;;;;;;;21.06;100.00;97927.47;3177929;23;20496;-88
2023/08/25 02:44:25;;;;;;;6.03;3.80;;;;;;;21.17;100.00;97923.00;3184606;23;20509;-88
2023/08/25 02:45:41;;;;;;;5.68;3.90;;;;;;;21.02;100.00;97919.75;3195213;23;20021;-88
2023/08/25 02:46:56;;;;;;;4.30;3.45;;;;;;;21.06;100.00;97924.81;3195792;23;20465;-88
2023/08/25 02:48:12;;;;;;;6.65;3.97;;;;;;;20.93;100.00;97917.81;3194285;23;20021;-89
2023/08/25 02:49:28;;;;;;;6.72;3.60;;;;;;;20.85;100.00;97921.06;3194424;23;20029;-89
2023/08/25 02:50:43;;;;;;;9.13;3.80;;;;;;;20.96;100.00;97917.59;3194864;23;20021;-88
2023/08/25 02:51:59;;;;;;;5.88;4.20;;;;;;;21.06;100.00;97922.16;3195629;23;20025;-88
2023/08/25 02:53:14;;;;;;;7.75;3.60;;;;;;;20.86;100.00;97912.13;3196221;23;20457;-88
2023/08/25 02:54:30;;;;;;;5.10;3.83;;;;;;;20.80;100.00;97901.94;3194284;23;20013;-88
2023/08/25 02:55:46;;;;;;;4.72;3.70;;;;;;;20.91;100.00;97914.41;3194594;23;20509;-88
2023/08/25 02:57:02;;;;;;;4.65;3.75;;;;;;;21.00;100.00;97903.06;3195136;23;20508;-88
2023/08/25 02:58:17;;;;;;;5.20;3.55;;;;;;;20.70;100.00;97896.50;3194336;23;20458;-88
2023/08/25 02:59:33;;;;;;;8.80;3.90;;;;;;;20.74;100.00;97895.28;3194332;23;20027;-88
2023/08/25 03:00:49;;;;;;;5.50;4.18;;;;;;;20.96;100.00;97901.63;3195182;23;20052;-87
2023/08/25 03:02:04;;;;;;;6.65;4.10;;;;;;;21.02;100.00;97893.13;3194982;23;20021;-88
2023/08/25 03:03:19;;;;;;;5.45;4.03;;;;;;;21.02;100.00;97892.28;3195472;23;20532;-87
2023/08/25 03:04:35;;;;;;;6.55;3.97;;;;;;;20.96;100.00;97901.63;3196088;23;20071;-88
2023/08/25 03:05:51;;;;;;;7.85;4.25;;;;;;;20.94;100.00;97903.53;3196009;23;20461;-88
2023/08/25 03:07:06;;;;;;;6.78;3.50;;;;;;;20.95;100.00;97899.91;3195967;23;20075;-89
2023/08/25 03:08:23;;;;;;;6.10;3.65;;;;;;;20.86;100.00;97892.66;3195526;23;20020;-88
2023/08/25 03:09:39;;;;;;;6.72;4.07;;;;;;;20.85;100.00;97889.16;3194129;23;20435;-88
2023/08/25 03:10:54;;;;;;;4.80;3.90;;;;;;;20.86;100.00;97903.31;3194216;23;20021;-88
2023/08/25 03:12:10;;;;;;;5.05;3.67;;;;;;;20.81;100.00;97897.50;3194573;23;20020;-88
2023/08/25 03:13:25;;;;;;;7.18;3.83;;;;;;;20.70;100.00;97883.22;3195370;23;20300;-88
2023/08/25 03:14:41;;;;;;;6.13;3.97;;;;;;;20.56;100.00;97880.78;3195821;23;20029;-88
2023/08/25 03:15:59;;;;;;;7.13;4.25;;;;;;;20.59;100.00;97880.53;3194106;23;20081;-88
2023/08/25 03:17:15;;;;;;;7.82;4.22;;;;;;;20.66;100.00;97881.75;3178162;23;20756;-88
2023/08/25 03:18:30;;;;;;;6.15;3.97;;;;;;;20.69;100.00;97884.19;3184840;23;20024;-88
2023/08/25 03:19:46;;;;;;;5.28;3.97;;;;;;;20.44;100.00;97875.47;3195515;23;20457;-89
2023/08/25 03:21:02;;;;;;;6.43;4.20;;;;;;;20.32;100.00;97884.38;3179783;23;20025;-88
2023/08/25 03:22:17;;;;;;;6.85;4.30;;;;;;;19.98;100.00;97876.34;3184202;23;20052;-88
2023/08/25 03:23:35;;;;;;;7.22;4.30;;;;;;;20.20;100.00;97882.66;3177681;23;20456;-88
2023/08/25 03:24:51;;;;;;;5.05;3.95;;;;;;;20.14;100.00;97876.00;3178373;23;20037;-88
2023/08/25 03:26:07;;;;;;;7.10;4.32;;;;;;;20.43;100.00;97888.88;3185921;23;20444;-88
2023/08/25 03:27:22;;;;;;;8.15;3.95;;;;;;;20.32;100.00;97884.38;3194481;23;20472;-88
2023/08/25 03:28:38;;;;;;;10.05;4.50;;;;;;;20.43;100.00;97880.88;3194382;23;20088;-88
2023/08/25 03:29:53;;;;;;;6.55;4.25;;;;;;;20.21;100.00;97879.03;3194476;23;20021;-88
2023/08/25 03:31:09;;;;;;;7.82;4.38;;;;;;;20.47;100.00;97882.38;3195283;23;20089;-89
2023/08/25 03:32:25;;;;;;;6.72;4.43;;;;;;;20.65;100.00;97881.88;3193247;23;20162;-88
2023/08/25 03:33:41;;;;;;;7.30;4.22;;;;;;;20.74;100.00;97881.13;3178132;23;20454;-89
2023/08/25 03:34:56;;;;;;;6.75;4.00;;;;;;;20.80;100.00;97885.13;3184653;23;20410;-88
2023/08/25 03:36:12;;;;;;;6.75;3.95;;;;;;;20.81;100.00;97876.19;3194959;23;20021;-88
2023/08/25 03:37:27;;;;;;;5.57;3.92;;;;;;;20.71;100.00;97878.72;3194005;23;20021;-88
2023/08/25 03:38:43;;;;;;;7.00;4.22;;;;;;;20.67;100.00;97874.63;3194095;23;20775;-88
2023/08/25 03:39:59;;;;;;;5.28;4.05;;;;;;;20.73;100.00;97869.66;3194624;23;20461;-88
2023/08/25 03:41:14;;;;;;;8.23;3.90;;;;;;;20.84;100.00;97873.31;3194279;23;20021;-88
2023/08/25 03:42:30;;;;;;;5.63;4.65;;;;;;;20.69;100.00;97876.19;3177949;23;20132;-88
2023/08/25 03:43:45;;;;;;;5.43;4.00;;;;;;;20.77;100.00;97866.75;3183741;23;20095;-88
2023/08/25 03:45:01;;;;;;;6.07;4.15;;;;;;;20.82;100.00;97859.31;3193599;23;20445;-88
2023/08/25 03:46:17;;;;;;;7.35;4.07;;;;;;;20.83;100.00;97869.81;3194018;23;20028;-88
2023/08/25 03:47:32;;;;;;;8.88;3.72;;;;;;;20.78;100.00;97860.47;3195472;23;20025;-88
2023/08/25 03:48:48;;;;;;;6.25;4.07;;;;;;;20.63;100.00;97858.06;3193918;23;20453;-88
2023/08/25 03:50:04;;;;;;;4.35;3.80;;;;;;;20.64;100.00;97869.56;3193981;23;20044;-88
2023/08/25 03:51:20;;;;;;;7.30;3.80;;;;;;;20.62;100.00;97855.53;3194525;23;20483;-88
2023/08/25 03:52:35;;;;;;;6.55;4.15;;;;;;;20.53;100.00;97852.63;3195250;23;20067;-90
2023/08/25 03:53:51;;;;;;;5.68;4.03;;;;;;;20.53;100.00;97852.63;3177744;23;20025;-90
2023/08/25 03:55:08;;;;;;;6.70;3.95;;;;;;;20.54;100.00;97842.84;3183572;23;20421;-91
2023/08/25 03:56:23;;;;;;;5.85;3.97;;;;;;;20.53;100.00;97854.41;3194128;23;20103;-90
2023/08/25 03:57:39;;;;;;;5.38;4.15;;;;;;;20.55;100.00;97853.34;3178723;23;20445;-90
2023/08/25 03:58:55;;;;;;;8.55;4.13;;;;;;;20.50;100.00;97844.03;3170114;23;20558;-89
2023/08/25 04:00:11;;;;;;;5.57;4.03;;;;;;;20.42;100.00;97842.84;3184262;23;20123;-90
2023/08/25 04:01:26;;;;;;;8.65;4.72;;;;;;;20.30;100.00;97841.13;3194345;23;20040;-91
2023/08/25 04:02:42;;;;;;;7.05;4.28;;;;;;;20.33;100.00;97846.19;3177708;23;20114;-91
2023/08/25 04:03:57;;;;;;;7.35;4.40;;;;;;;20.29;100.00;97844.75;3169408;23;20416;-90
2023/08/25 04:05:13;;;;;;;8.55;4.53;;;;;;;20.07;100.00;97837.59;3168848;23;20073;-90
2023/08/25 04:06:29;;;;;;;8.27;4.38;;;;;;;20.13;100.00;97845.09;3184843;23;20017;-90
2023/08/25 04:07:44;;;;;;;8.43;4.35;;;;;;;20.01;100.00;97838.91;3178565;23;20064;-90
2023/08/25 04:09:00;;;;;;;9.88;5.03;;;;;;;20.04;100.00;97833.34;3152798;23;20473;-89
2023/08/25 04:10:16;;;;;;;7.30;4.18;;;;;;;19.89;100.00;97840.66;3176691;23;20100;-90
2023/08/25 04:11:32;;;;;;;4.70;4.03;;;;;;;19.78;100.00;97838.81;3192899;23;20025;-90
2023/08/25 04:12:47;;;;;;;6.30;4.47;;;;;;;19.90;100.00;97842.34;3193610;23;20079;-90
2023/08/25 04:14:03;;;;;;;10.00;4.68;;;;;;;19.88;100.00;97844.28;3194670;23;20024;-90
2023/08/25 04:15:21;;;;;;;9.75;4.88;;;;;;;19.73;100.00;97833.84;3179086;23;20022;-90
2023/08/25 04:16:37;;;;;;;5.32;4.25;;;;;;;19.71;100.00;97837.59;3186396;23;20024;-90
2023/08/25 04:17:52;;;;;;;6.97;4.85;;;;;;;19.80;100.00;97838.72;3194034;23;20322;-91
2023/08/25 04:19:08;;;;;;;6.60;4.60;;;;;;;19.74;100.00;97830.22;3194516;23;20055;-90
2023/08/25 04:20:25;;;;;;;6.07;4.60;;;;;;;19.56;100.00;97823.66;3194845;23;20045;-90
2023/08/25 04:21:40;;;;;;;8.90;5.05;;;;;;;19.53;100.00;97826.56;3195302;23;20074;-90
2023/08/25 04:22:56;;;;;;;9.15;5.18;;;;;;;19.75;100.00;97828.44;3196020;23;20425;-90
2023/08/25 04:24:11;;;;;;;7.57;4.72;;;;;;;19.94;100.00;97829.72;3177931;23;20025;-90
2023/08/25 04:25:29;;;;;;;5.75;4.78;;;;;;;19.70;100.00;97833.25;3184594;23;20092;-90
2023/08/25 04:26:45;;;;;;;8.63;5.00;;;;;;;19.81;100.00;97825.28;3194972;23;20025;-90
2023/08/25 04:28:01;;;;;;;7.45;4.72;;;;;;;20.04;100.00;97836.00;3193957;23;20072;-89
2023/08/25 04:29:16;;;;;;;10.05;4.53;;;;;;;19.60;100.00;97828.63;3194085;23;20067;-90
2023/08/25 04:30:32;;;;;;;6.40;4.05;;;;;;;19.29;100.00;97824.75;3177649;23;20025;-90
2023/08/25 04:31:47;;;;;;;9.15;4.45;;;;;;;19.63;100.00;97832.88;3184307;23;20028;-89
2023/08/25 04:33:04;;;;;;;10.55;4.63;;;;;;;19.85;100.00;97832.09;3194591;23;20071;-90
2023/08/25 04:34:20;;;;;;;10.00;4.55;;;;;;;19.96;100.00;97831.28;3195668;23;20036;-90
2023/08/25 04:35:36;;;;;;;7.50;4.63;;;;;;;19.97;100.00;97830.31;3194073;23;20028;-89
2023/08/25 04:36:52;;;;;;;7.65;4.85;;;;;;;20.06;100.00;97839.41;3192898;23;20028;-91
2023/08/25 04:38:07;;;;;;;7.15;4.68;;;;;;;19.95;100.00;97834.91;3194222;23;20020;-91
2023/08/25 04:39:23;;;;;;;6.32;4.70;;;;;;;19.84;100.00;97834.84;3193981;23;20738;-91
2023/08/25 04:40:39;;;;;;;8.77;4.45;;;;;;;19.72;100.00;97820.69;3177457;23;20096;-90
2023/08/25 04:41:54;;;;;;;7.45;4.65;;;;;;;19.63;100.00;97822.25;3168244;23;20778;-91
2023/08/25 04:43:10;;;;;;;8.68;4.63;;;;;;;19.66;100.00;97826.47;3185064;23;20044;-91
2023/08/25 04:44:25;;;;;;;5.40;4.32;;;;;;;19.62;100.00;97823.19;3193860;23;20031;-91
2023/08/25 04:45:41;;;;;;;6.55;4.60;;;;;;;20.08;100.00;97826.84;3193593;23;20294;-91
2023/08/25 04:46:57;;;;;;;6.65;4.55;;;;;;;19.91;100.00;97830.78;3193327;23;20017;-92
2023/08/25 04:48:12;;;;;;;6.80;4.28;;;;;;;20.02;100.00;97825.50;3177298;23;20069;-89
2023/08/25 04:49:28;;;;;;;7.32;4.40;;;;;;;20.42;100.00;97832.19;3169586;23;20017;-91
2023/08/25 04:50:44;;;;;;;5.53;4.13;;;;;;;20.36;100.00;97829.19;3183649;23;20024;-91
2023/08/25 04:52:00;;;;;;;6.18;4.00;;;;;;;20.57;100.00;97835.44;3194053;23;20025;-91
2023/08/25 04:53:16;;;;;;;4.40;3.65;;;;;;;20.44;100.00;97834.72;3194155;23;20024;-91
2023/08/25 04:54:31;;;;;;;5.65;3.72;;;;;;;20.57;100.00;97827.47;3178410;23;20017;-92
2023/08/25 04:55:47;;;;;;;7.95;4.18;;;;;;;20.74;100.00;97827.94;3169762;23;20500;-92
2023/08/25 04:57:03;;;;;;;4.60;3.35;;;;;;;20.83;100.00;97824.56;3183930;23;20021;-91
2023/08/25 04:58:18;;;;;;;5.70;3.63;;;;;;;20.88;100.00;97830.41;3193288;23;20021;-92
2023/08/25 04:59:34;;;;;;;5.20;3.80;;;;;;;20.86;100.00;97834.13;3194257;23;20465;-91
2023/08/25 05:00:50;;;;;;;6.05;3.88;;;;;;;20.92;100.00;97823.00;3193570;23;20021;-91
2023/08/25 05:02:05;;;;;;;4.68;4.03;;;;;;;20.92;100.00;97819.50;3193261;23;20021;-89
2023/08/25 05:03:21;;;;;;;6.32;4.40;;;;;;;21.01;100.00;97818.72;3177852;23;20354;-90
2023/08/25 05:04:36;;;;;;;6.10;4.10;;;;;;;21.05;100.00;97819.34;3183123;23;20029;-90
2023/08/25 05:05:52;;;;;;;5.85;3.70;;;;;;;21.14;100.00;97819.41;3193422;23;20017;-90
2023/08/25 05:07:08;;;;;;;8.63;4.40;;;;;;;21.09;100.00;97818.09;3193553;23;20358;-90
2023/08/25 05:08:24;;;;;;;9.82;5.00;;;;;;;20.98;100.00;97819.84;3193584;23;20484;-90
2023/08/25 05:09:39;;;;;;;8.35;4.38;;;;;;;20.96;100.00;97821.78;3194411;23;20754;-90
2023/08/25 05:10:55;;;;;;;9.80;4.55;;;;;;;21.03;100.00;97816.81;3178535;23;20442;-90
2023/08/25 05:12:11;;;;;;;8.13;4.90;;;;;;;21.14;100.00;97814.09;3185425;23;20032;-90
2023/08/25 05:13:27;;;;;;;8.80;5.05;;;;;;;21.15;100.00;97826.44;3193727;23;20021;-90
2023/08/25 05:14:42;;;;;;;5.43;4.72;;;;;;;21.07;100.00;97822.72;3194266;23;20052;-91
2023/08/25 05:15:58;;;;;;;7.65;5.00;;;;;;;21.09;100.00;97818.09;3195243;23;20028;-91
2023/08/25 05:17:14;;;;;;;7.88;4.50;;;;;;;20.98;100.00;97824.31;3177532;23;20462;-90
2023/08/25 05:18:31;;;;;;;8.02;5.20;;;;;;;21.23;100.00;97828.50;3183651;23;20044;-90
2023/08/25 05:19:47;;;;;;;8.23;4.97;;;;;;;21.28;100.00;97828.94;3177247;23;20056;-91
2023/08/25 05:21:03;;;;;;;6.88;5.30;;;;;;;21.41;100.00;97831.44;3169212;23;20032;-91
2023/08/25 05:22:19;;;;;;;10.07;4.75;;;;;;;21.01;100.00;97816.94;3184171;23;20021;-90
2023/08/25 05:23:34;;;;;;;8.43;4.22;;;;;;;21.13;100.00;97833.69;3194265;23;20044;-90
2023/08/25 05:24:52;;;;;;;7.95;4.20;;;;;;;20.96;100.00;97826.25;3193942;23;20048;-91
2023/08/25 05:26:08;;;;;;;7.65;4.63;;;;;;;21.05;100.00;97824.66;3194030;23;20020;-91
2023/08/25 05:27:23;;;;;;;5.03;4.30;;;;;;;21.07;100.00;97814.72;3178030;23;20101;-91
2023/08/25 05:28:39;;;;;;;6.97;4.53;;;;;;;21.16;100.00;97813.97;3169490;23;20017;-90
2023/08/25 05:29:55;;;;;;;6.10;4.28;;;;;;;21.38;100.00;97814.91;3183709;23;20030;-91
2023/08/25 05:31:11;;;;;;;8.07;4.00;;;;;;;21.31;100.00;97809.22;3177604;23;20786;-92
2023/08/25 05:32:27;;;;;;;5.10;3.17;;;;;;;21.45;100.00;97821.38;3183506;23;20095;-93
2023/08/25 05:33:42;;;;;;;5.80;3.20;;;;;;;21.51;100.00;97814.72;3194754;23;20591;-90
2023/08/25 05:34:58;;;;;;;4.70;2.45;;;;;;;21.73;100.00;97824.44;3176833;23;20022;-92
2023/08/25 05:36:16;;;;;;;3.20;2.45;;;;;;;21.86;100.00;97824.22;3183648;23;20021;-92
2023/08/25 05:37:33;;;;;;;4.50;2.33;;;;;;;22.12;100.00;97826.50;3194014;23;20021;-92
2023/08/25 05:38:48;;;;;;;3.38;2.30;;;;;;;22.34;100.00;97825.50;3193992;23;20498;-91
2023/08/25 05:40:06;;;;;;;3.10;2.33;;;;;;;22.35;100.00;97824.53;3193029;23;20492;-91
2023/08/25 05:41:22;;;;;;;3.97;2.40;;;;;;;22.59;100.00;97826.06;3194661;23;20060;-91
2023/08/25 05:42:38;;;;;;;5.55;2.20;;;;;;;22.58;100.00;97829.69;3177304;23;20148;-91
2023/08/25 05:43:54;;;;;;;10.65;2.45;;;;;;;22.80;100.00;97828.66;3184123;23;20054;-91
2023/08/25 05:45:09;;;;;;;7.00;2.33;;;;;;;22.92;100.00;97821.41;3195111;23;20104;-92
2023/08/25 05:46:26;;;;;;;4.80;2.08;;;;;;;22.64;100.00;97831.84;3178880;23;20025;-91
2023/08/25 05:47:42;;;;;;;4.18;2.20;;;;;;;22.76;100.00;97835.25;3184770;23;20067;-91
2023/08/25 05:48:58;;;;;;;2.22;1.98;;;;;;;22.95;100.00;97837.13;3194934;23;20067;-91
2023/08/25 05:50:14;;;;;;;6.63;2.83;;;;;;;23.14;100.00;97830.13;3178110;23;20544;-90
2023/08/25 05:51:31;;;;;;;3.47;1.92;;;;;;;23.14;100.00;97835.47;3186333;23;20468;-91
2023/08/25 05:52:47;;;;;;;4.38;2.00;;;;;;;22.93;100.00;97840.91;3177954;23;20018;-92
2023/08/25 05:54:02;;;;;;;5.22;2.20;;;;;;;23.16;100.00;97832.69;3184895;23;20028;-91
2023/08/25 05:55:19;;;;;;;3.75;1.90;;;;;;;23.01;100.00;97833.06;3178490;23;20104;-90
2023/08/25 05:56:34;;;;;;;7.70;2.10;;;;;;;22.76;100.00;97839.72;3185955;23;20453;-91